createdAt,value
2018-06-01T00:00:57.422Z,13.00
2018-06-01T00:03:25.679Z,17.67
2018-06-01T00:05:53.913Z,12.40
2018-06-01T00:08:22.144Z,15.27
2018-06-01T00:10:50.418Z,15.50
2018-06-01T00:13:18.694Z,13.00
2018-06-01T00:15:46.915Z,11.67
2018-06-01T00:18:15.168Z,12.80
2018-06-01T00:20:44.169Z,11.67
2018-06-01T00:23:12.420Z,13.43
2018-06-01T00:25:40.667Z,13.43
2018-06-01T00:28:08.897Z,12.33
2018-06-01T00:30:37.144Z,16.07
2018-06-01T00:33:05.397Z,11.50
2018-06-01T00:35:33.620Z,15.63
2018-06-01T00:38:01.876Z,13.63
2018-06-01T00:40:30.104Z,12.13
2018-06-01T00:42:58.352Z,11.40
2018-06-01T00:45:26.582Z,11.83
2018-06-01T00:47:54.848Z,11.00
2018-06-01T00:50:23.077Z,11.53
2018-06-01T00:52:52.083Z,11.70
2018-06-01T00:55:25.237Z,12.27
2018-06-01T00:57:53.466Z,11.90
2018-06-01T01:00:21.723Z,14.60
2018-06-01T01:02:49.943Z,12.87
2018-06-01T01:05:18.164Z,9.80
2018-06-01T01:07:47.178Z,10.50
2018-06-01T01:10:15.423Z,10.67
2018-06-01T01:12:44.466Z,10.47
2018-06-01T01:15:12.699Z,11.50
2018-06-01T01:17:41.689Z,12.07
2018-06-01T01:20:10.704Z,10.23
2018-06-01T01:22:38.933Z,11.90
2018-06-01T01:25:07.182Z,11.67
2018-06-01T01:27:35.405Z,11.33
2018-06-01T01:30:03.647Z,11.60
2018-06-01T01:32:31.897Z,9.60
2018-06-01T01:35:00.139Z,12.67
2018-06-01T01:37:33.019Z,11.97
2018-06-01T01:40:01.241Z,11.23
2018-06-01T01:42:29.500Z,9.87
2018-06-01T01:44:57.727Z,9.53
2018-06-01T01:47:25.960Z,11.13
2018-06-01T01:49:54.181Z,10.43
2018-06-01T01:52:22.433Z,10.20
2018-06-01T01:54:50.677Z,10.57
2018-06-01T01:57:18.910Z,10.67
2018-06-01T01:59:47.140Z,9.87
2018-06-01T02:02:15.372Z,12.07
2018-06-01T02:04:43.617Z,8.90
2018-06-01T02:07:11.846Z,9.10
2018-06-01T02:09:40.871Z,11.57
2018-06-01T02:12:09.092Z,12.13
2018-06-01T02:14:37.340Z,11.37
2018-06-01T02:17:05.579Z,9.00
2018-06-01T02:19:33.852Z,11.00
2018-06-01T02:22:02.071Z,9.07
2018-06-01T02:24:30.298Z,10.07
2018-06-01T02:26:58.554Z,12.43
2018-06-01T02:29:26.770Z,14.93
2018-06-01T02:31:55.016Z,10.10
2018-06-01T02:34:24.028Z,9.10
2018-06-01T02:36:52.263Z,9.57
2018-06-01T02:39:20.510Z,10.33
2018-06-01T02:41:48.752Z,12.90
2018-06-01T02:44:16.967Z,11.40
2018-06-01T02:46:45.213Z,9.30
2018-06-01T02:49:13.463Z,10.07
2018-06-01T02:51:42.466Z,11.07
2018-06-01T02:54:11.447Z,13.20
2018-06-01T02:56:40.464Z,11.40
2018-06-01T02:59:08.695Z,11.63
2018-06-01T03:01:36.930Z,9.83
2018-06-01T03:04:05.197Z,10.43
2018-06-01T03:06:48.220Z,9.77
2018-06-01T03:09:16.444Z,10.63
2018-06-01T03:11:44.687Z,12.63
2018-06-01T03:14:12.940Z,14.90
2018-06-01T03:16:41.186Z,10.97
2018-06-01T03:19:09.436Z,10.50
2018-06-01T03:21:37.663Z,10.93
2018-06-01T03:24:05.913Z,16.97
2018-06-01T03:26:34.149Z,13.90
2018-06-01T03:29:02.408Z,13.60
2018-06-01T03:31:30.631Z,14.40
2018-06-01T03:33:58.882Z,11.23
2018-06-01T03:36:27.142Z,10.63
2018-06-01T03:38:55.367Z,11.17
2018-06-01T03:41:23.608Z,11.03
2018-06-01T03:43:51.853Z,11.40
2018-06-01T06:02:39.759Z,15.20
2018-06-01T06:05:07.969Z,15.57
2018-06-01T06:07:37.007Z,17.63
2018-06-01T06:10:05.242Z,15.33
2018-06-01T06:12:34.295Z,20.07
2018-06-01T06:15:02.558Z,16.37
2018-06-01T06:17:30.806Z,16.37
2018-06-01T06:19:59.061Z,18.47
2018-06-01T06:22:28.080Z,18.93
2018-06-01T06:24:56.340Z,25.60
2018-06-01T06:27:25.330Z,17.50
2018-06-01T06:29:54.379Z,15.90
2018-06-01T06:32:22.593Z,18.57
2018-06-01T06:34:50.821Z,17.70
2018-06-01T06:37:19.089Z,16.13
2018-06-01T06:39:47.394Z,18.77
2018-06-01T06:42:15.969Z,16.17
2018-06-01T06:44:44.288Z,15.80
2018-06-01T06:47:12.539Z,17.13
2018-06-01T06:49:40.829Z,20.50
2018-06-01T06:52:09.072Z,17.87
2018-06-01T06:54:38.109Z,17.53
2018-06-01T06:57:07.111Z,16.50
2018-06-01T06:59:36.116Z,16.40
2018-06-01T07:02:04.367Z,16.43
2018-06-01T07:04:32.606Z,34.17
2018-06-01T07:07:00.885Z,18.73
2018-06-01T07:09:29.115Z,18.83
2018-06-01T07:11:57.355Z,16.30
2018-06-01T07:14:25.646Z,15.17
2018-06-01T07:16:53.837Z,26.13
2018-06-01T07:19:22.883Z,17.97
2018-06-01T07:21:51.153Z,33.70
2018-06-01T07:24:19.407Z,26.23
2018-06-01T07:26:47.631Z,19.33
2018-06-01T07:29:15.902Z,16.10
2018-06-01T07:31:44.142Z,17.07
2018-06-01T07:34:12.409Z,16.70
2018-06-01T07:36:40.639Z,24.07
2018-06-01T07:39:08.870Z,24.37
2018-06-01T07:41:37.142Z,14.77
2018-06-01T07:44:05.403Z,18.60
2018-06-01T07:46:33.644Z,16.67
2018-06-01T07:49:01.897Z,16.17
2018-06-01T07:51:30.139Z,17.37
2018-06-01T07:53:58.368Z,13.67
2018-06-01T07:56:26.620Z,16.43
2018-06-01T07:58:54.887Z,25.50
2018-06-01T08:01:23.134Z,17.83
2018-06-01T08:03:52.156Z,14.50
2018-06-01T08:06:20.417Z,14.17
2018-06-01T08:08:48.677Z,14.10
2018-06-01T08:11:18.420Z,15.13
2018-06-01T08:13:46.731Z,18.33
2018-06-01T08:16:14.972Z,20.90
2018-06-01T08:18:43.214Z,13.67
2018-06-01T08:21:12.256Z,13.63
2018-06-01T08:23:40.510Z,16.70
2018-06-01T08:26:08.745Z,16.50
2018-06-01T08:28:37.049Z,17.67
2018-06-01T08:31:05.332Z,22.17
2018-06-01T08:33:33.579Z,15.50
2018-06-01T08:36:01.828Z,14.17
2018-06-01T08:38:30.852Z,19.90
2018-06-01T08:40:59.106Z,15.13
2018-06-01T08:43:27.377Z,22.37
2018-06-01T08:45:55.683Z,15.73
2018-06-01T08:48:23.964Z,16.50
2018-06-01T08:50:52.216Z,14.70
2018-06-01T08:53:20.439Z,22.03
2018-06-01T08:55:48.710Z,19.33
2018-06-01T08:58:16.973Z,18.53
2018-06-01T09:00:45.231Z,15.03
2018-06-01T09:03:13.528Z,16.00
2018-06-01T09:05:41.749Z,17.35
2018-06-01T09:08:09.982Z,13.70
2018-06-01T09:10:39.021Z,14.80
2018-06-01T09:13:07.263Z,18.53
2018-06-01T09:15:35.553Z,21.62
2018-06-01T09:18:04.567Z,25.13
2018-06-01T09:20:32.795Z,19.37
2018-06-01T09:23:01.808Z,15.57
2018-06-01T09:25:30.050Z,17.67
2018-06-01T09:27:58.332Z,22.53
2018-06-01T09:30:26.567Z,16.80
2018-06-01T09:32:54.825Z,18.80
2018-06-01T09:35:23.056Z,14.80
2018-06-01T09:37:51.300Z,12.98
2018-06-01T09:40:19.525Z,20.25
2018-06-01T09:42:48.532Z,16.23
2018-06-01T09:45:16.822Z,16.60
2018-06-01T09:47:45.812Z,19.98
2018-06-01T09:50:14.046Z,17.87
2018-06-01T09:52:42.315Z,19.52
2018-06-01T09:55:10.548Z,17.75
2018-06-01T09:57:38.780Z,13.48
2018-06-01T10:00:07.042Z,16.20
2018-06-01T10:02:35.281Z,14.30
2018-06-01T10:05:03.546Z,17.60
2018-06-01T10:07:31.787Z,18.67
2018-06-01T10:10:05.801Z,14.10
2018-06-01T10:12:34.053Z,14.45
2018-06-01T10:15:02.289Z,21.95
2018-06-01T10:17:30.559Z,18.23
2018-06-01T10:19:58.804Z,18.05
2018-06-01T10:22:27.041Z,25.12
2018-06-01T10:24:55.273Z,22.15
2018-06-01T10:27:24.295Z,28.05
2018-06-01T10:29:52.557Z,28.75
2018-06-01T10:32:21.557Z,22.95
2018-06-01T10:34:49.788Z,20.08
2018-06-01T10:37:18.047Z,21.73
2018-06-01T10:39:46.304Z,18.02
2018-06-01T10:42:14.553Z,20.25
2018-06-01T10:44:42.806Z,24.40
2018-06-01T10:47:11.840Z,19.73
2018-06-01T10:49:40.045Z,17.83
2018-06-01T10:52:08.314Z,14.68
2018-06-01T10:54:36.577Z,20.50
2018-06-01T10:57:04.885Z,17.48
2018-06-01T10:59:33.142Z,15.43
2018-06-01T11:02:01.380Z,15.90
2018-06-01T11:04:30.410Z,16.80
2018-06-01T11:06:59.436Z,22.60
2018-06-01T11:09:27.684Z,20.12
2018-06-01T11:11:55.924Z,16.20
2018-06-01T11:14:24.212Z,15.32
2018-06-01T11:16:53.188Z,16.62
2018-06-01T11:19:21.475Z,15.73
2018-06-01T11:21:50.450Z,15.32
2018-06-01T11:24:18.701Z,15.75
2018-06-01T11:26:46.948Z,15.27
2018-06-01T11:29:15.172Z,15.88
2018-06-01T11:31:44.183Z,11.57
2018-06-01T11:34:12.420Z,10.82
2018-06-01T11:36:40.665Z,8.82
2018-06-01T11:39:08.898Z,8.43
2018-06-01T11:41:37.908Z,11.18
2018-06-01T11:44:06.932Z,11.45
2018-06-01T11:46:35.169Z,10.02
2018-06-01T11:49:04.181Z,13.83
2018-06-01T11:51:32.441Z,17.23
2018-06-01T11:54:01.435Z,12.00
2018-06-01T11:56:30.445Z,7.93
2018-06-01T11:58:58.669Z,9.10
2018-06-01T12:01:26.952Z,8.33
2018-06-01T12:03:55.192Z,9.63
2018-06-01T12:06:23.511Z,9.18
2018-06-01T12:08:51.742Z,13.10
2018-06-01T12:11:20.020Z,8.40
2018-06-01T12:13:49.241Z,7.05
2018-06-01T12:16:17.470Z,7.97
2018-06-01T12:18:45.705Z,9.32
2018-06-01T12:21:13.929Z,8.90
2018-06-01T12:23:42.201Z,8.90
2018-06-01T12:26:10.445Z,12.45
2018-06-01T12:28:38.679Z,8.77
2018-06-01T12:31:06.901Z,9.35
2018-06-01T12:33:35.133Z,10.65
2018-06-01T12:36:03.380Z,8.82
2018-06-01T12:38:31.641Z,18.05
2018-06-01T12:41:00.657Z,8.38
2018-06-01T12:43:28.912Z,8.35
2018-06-01T12:45:57.148Z,12.60
2018-06-01T12:48:25.387Z,8.57
2018-06-01T12:50:53.758Z,8.23
2018-06-01T12:53:21.981Z,6.97
2018-06-01T12:55:50.224Z,10.32
2018-06-01T12:58:18.490Z,7.43
2018-06-01T13:00:47.455Z,8.90
2018-06-01T13:03:16.471Z,7.60
2018-06-01T13:05:45.454Z,11.15
2018-06-01T13:08:13.688Z,10.27
2018-06-01T13:10:41.912Z,7.80
2018-06-01T13:13:10.213Z,16.83
2018-06-01T13:15:38.558Z,10.35
2018-06-01T13:18:07.900Z,7.72
2018-06-01T13:20:36.223Z,11.75
2018-06-01T13:23:04.376Z,7.18
2018-06-01T13:25:32.611Z,7.20
2018-06-01T13:28:00.832Z,10.43
2018-06-01T13:30:29.092Z,10.20
2018-06-01T13:32:57.312Z,10.85
2018-06-01T13:35:26.357Z,11.25
2018-06-01T13:37:54.652Z,11.10
2018-06-01T13:40:22.917Z,11.75
2018-06-01T13:42:51.219Z,13.68
2018-06-01T13:45:19.462Z,12.73
2018-06-01T13:47:47.689Z,12.73
2018-06-01T13:50:15.941Z,12.25
2018-06-01T13:52:44.196Z,15.35
2018-06-01T13:55:12.436Z,14.15
2018-06-01T14:00:16.885Z,12.70
2018-06-01T14:02:45.128Z,13.57
2018-06-01T14:05:13.368Z,11.70
2018-06-01T14:07:42.559Z,13.48
2018-06-01T14:10:10.781Z,12.75
2018-06-01T14:12:39.778Z,18.35
2018-06-01T14:15:08.029Z,15.15
2018-06-01T14:17:36.276Z,17.33
2018-06-01T14:20:04.533Z,13.88
2018-06-01T14:22:32.810Z,20.62
2018-06-01T14:25:01.079Z,12.65
2018-06-01T14:27:29.355Z,14.10
2018-06-01T14:29:57.602Z,11.38
2018-06-01T14:32:25.868Z,17.80
2018-06-01T14:34:54.104Z,12.32
2018-06-01T14:37:22.368Z,14.90
2018-06-01T14:39:51.351Z,13.68
2018-06-01T14:42:19.585Z,10.77
2018-06-01T14:44:47.835Z,14.60
2018-06-01T14:47:16.084Z,14.68
2018-06-01T14:49:44.324Z,14.55
2018-06-01T14:52:12.600Z,11.27
2018-06-01T14:54:40.830Z,11.10
2018-06-01T14:57:09.085Z,15.05
2018-06-01T14:59:37.310Z,10.60
2018-06-01T15:02:05.540Z,10.45
2018-06-01T15:04:33.780Z,9.13
2018-06-01T15:07:02.012Z,9.38
2018-06-01T15:09:30.290Z,11.00
2018-06-01T15:11:58.546Z,12.95
2018-06-01T15:14:27.556Z,10.65
2018-06-01T15:16:55.781Z,10.70
2018-06-01T15:19:24.042Z,8.77
2018-06-01T15:21:52.269Z,9.27
2018-06-01T15:24:21.271Z,8.45
2018-06-01T15:26:49.492Z,8.35
2018-06-01T15:29:17.707Z,9.23
2018-06-01T15:31:45.960Z,9.10
2018-06-01T15:34:14.233Z,7.93
2018-06-01T15:36:42.484Z,10.73
2018-06-01T15:39:10.689Z,7.97
2018-06-01T15:41:38.960Z,8.00
2018-06-01T15:44:07.143Z,7.78
2018-06-01T15:46:36.164Z,7.12
2018-06-01T15:49:04.461Z,7.12
2018-06-01T15:51:32.676Z,14.77
2018-06-01T15:54:00.983Z,10.00
2018-06-01T15:56:29.983Z,9.35
2018-06-01T15:58:58.191Z,8.82
2018-06-01T16:01:27.223Z,13.45
2018-06-01T16:03:55.470Z,10.93
2018-06-01T16:06:23.743Z,9.13
2018-06-01T16:08:51.983Z,19.15
2018-06-01T16:11:20.204Z,14.10
2018-06-01T16:13:48.451Z,10.95
2018-06-01T16:16:16.718Z,10.02
2018-06-01T16:18:44.943Z,15.68
2018-06-01T16:21:13.217Z,10.38
2018-06-01T16:23:41.428Z,12.82
2018-06-01T16:26:09.661Z,15.52
2018-06-01T16:28:37.886Z,25.60
2018-06-01T16:31:06.163Z,14.32
2018-06-01T16:33:34.414Z,11.00
2018-06-01T16:36:02.635Z,18.52
2018-06-01T16:38:30.891Z,17.30
2018-06-01T16:40:59.128Z,26.33
2018-06-01T16:43:27.388Z,17.25
2018-06-01T16:45:55.617Z,16.27
2018-06-01T16:48:23.864Z,19.12
2018-06-01T16:50:52.112Z,19.97
2018-06-01T16:53:20.360Z,17.10
2018-06-01T16:55:48.617Z,23.80
2018-06-01T16:58:16.896Z,30.70
2018-06-01T17:00:45.876Z,30.30
2018-06-01T17:03:14.901Z,32.63
2018-06-01T17:05:43.139Z,28.33
2018-06-01T17:08:11.377Z,32.10
2018-06-01T17:10:39.625Z,28.30
2018-06-01T17:13:07.854Z,24.60
2018-06-01T17:15:36.150Z,29.53
2018-06-01T17:18:04.340Z,24.00
2018-06-01T17:20:32.620Z,19.27
2018-06-01T17:23:00.837Z,18.40
2018-06-01T17:25:29.079Z,16.33
2018-06-01T17:27:57.342Z,18.47
2018-06-01T17:30:26.378Z,13.60
2018-06-01T17:32:54.604Z,12.73
2018-06-01T17:35:23.634Z,17.40
2018-06-01T17:37:51.877Z,21.47
2018-06-01T17:40:20.087Z,20.23
2018-06-01T17:42:48.333Z,19.87
2018-06-01T17:45:17.354Z,18.27
2018-06-01T17:47:45.595Z,21.93
2018-06-01T17:50:14.592Z,17.90
2018-06-01T17:52:44.600Z,23.10
2018-06-01T17:55:12.841Z,15.13
2018-06-01T17:57:41.065Z,17.80
2018-06-01T18:00:10.092Z,15.83
2018-06-01T18:02:38.341Z,17.70
2018-06-01T18:05:07.335Z,18.70
2018-06-01T18:07:36.350Z,17.37
2018-06-01T18:10:04.593Z,15.10
2018-06-01T18:12:33.627Z,15.07
2018-06-01T18:15:01.869Z,17.23
2018-06-01T18:17:30.856Z,16.70
2018-06-01T18:19:59.958Z,13.93
2018-06-01T18:22:28.987Z,15.77
2018-06-01T18:24:57.208Z,17.20
2018-06-01T18:27:25.454Z,15.30
2018-06-01T18:29:53.693Z,19.90
2018-06-01T18:32:21.939Z,16.90
2018-06-01T18:34:50.182Z,15.50
2018-06-01T18:37:18.446Z,15.40
2018-06-01T18:39:46.696Z,15.77
2018-06-01T18:42:14.969Z,18.83
2018-06-01T18:44:43.218Z,15.57
2018-06-01T18:47:11.466Z,15.93
2018-06-01T18:49:39.722Z,14.53
2018-06-01T18:52:08.006Z,15.00
2018-06-01T18:54:36.229Z,14.07
2018-06-01T18:57:04.539Z,16.13
2018-06-01T18:59:32.765Z,15.27
2018-06-01T19:02:01.043Z,15.13
2018-06-01T19:04:29.254Z,15.73
2018-06-01T19:06:57.552Z,15.20
2018-06-01T19:09:25.929Z,15.33
2018-06-01T19:11:54.193Z,16.23
2018-06-01T19:14:22.434Z,15.40
2018-06-01T19:16:51.444Z,15.47
2018-06-01T19:19:20.435Z,15.53
2018-06-01T19:21:49.462Z,15.90
2018-06-01T19:24:17.689Z,15.77
2018-06-01T19:26:45.960Z,16.73
2018-06-01T19:29:14.191Z,20.30
2018-06-01T19:31:42.416Z,13.70
2018-06-01T19:34:10.670Z,14.97
2018-06-01T19:36:38.904Z,14.03
2018-06-01T19:39:07.153Z,16.43
2018-06-01T19:41:35.400Z,15.50
2018-06-01T19:44:03.631Z,15.20
2018-06-01T19:46:31.862Z,16.33
2018-06-01T19:49:00.129Z,16.17
2018-06-01T19:51:28.441Z,14.93
2018-06-01T19:53:56.643Z,15.67
2018-06-01T19:56:24.879Z,15.37
2018-06-01T19:58:53.308Z,14.87
2018-06-01T20:01:21.538Z,16.33
2018-06-01T20:03:49.970Z,15.33
2018-06-01T20:06:18.201Z,16.03
2018-06-01T20:08:46.460Z,15.43
2018-06-01T20:11:14.687Z,16.60
2018-06-01T20:13:42.934Z,16.73
2018-06-01T20:16:11.924Z,17.07
2018-06-01T20:18:40.185Z,19.10
2018-06-01T20:21:08.421Z,17.33
2018-06-01T20:23:36.660Z,20.47
2018-06-01T20:26:05.717Z,17.20
2018-06-01T20:28:33.936Z,15.47
2018-06-01T20:31:02.944Z,17.20
2018-06-01T20:33:31.166Z,18.47
2018-06-01T20:35:59.501Z,20.10
2018-06-01T20:38:27.741Z,18.60
2018-06-01T20:40:56.128Z,18.40
2018-06-01T20:43:24.345Z,17.60
2018-06-01T20:45:52.584Z,20.47
2018-06-01T20:48:21.589Z,19.13
2018-06-01T20:50:50.610Z,18.13
2018-06-01T20:53:18.878Z,19.57
2018-06-01T20:55:47.096Z,17.83
2018-06-01T20:58:15.402Z,18.33
2018-06-01T21:00:43.633Z,20.90
2018-06-01T21:03:11.897Z,22.90
2018-06-01T21:05:40.176Z,23.97
2018-06-01T21:08:08.426Z,46.27
2018-06-01T21:10:36.661Z,21.13
2018-06-01T21:13:04.900Z,19.27
2018-06-01T21:15:33.129Z,20.53
2018-06-01T21:18:01.423Z,23.33
2018-06-01T21:20:30.410Z,22.80
2018-06-01T21:22:58.663Z,24.77
2018-06-01T21:25:27.665Z,23.23
2018-06-01T21:27:55.922Z,22.87
2018-06-01T21:30:24.181Z,20.87
2018-06-01T21:32:52.415Z,21.83
2018-06-01T21:35:21.415Z,21.77
2018-06-01T21:37:49.687Z,21.70
2018-06-01T21:40:18.703Z,20.77
2018-06-01T21:42:46.937Z,20.77
2018-06-01T21:45:15.265Z,22.87
2018-06-01T21:47:43.491Z,21.00
2018-06-01T21:50:11.747Z,21.23
2018-06-01T21:52:39.989Z,21.27
2018-06-01T21:55:08.241Z,21.70
2018-06-01T21:57:37.287Z,24.23
2018-06-01T22:00:05.949Z,21.87
2018-06-01T22:02:34.153Z,25.07
2018-06-01T22:05:02.445Z,22.77
2018-06-01T22:07:30.672Z,22.80
2018-06-01T22:09:58.951Z,23.87
2018-06-01T22:12:27.221Z,25.57
2018-06-01T22:14:55.472Z,25.10
2018-06-01T22:17:24.489Z,26.43
2018-06-01T22:19:52.728Z,26.40
2018-06-01T22:22:20.963Z,25.07
2018-06-01T22:24:49.218Z,27.83
2018-06-01T22:27:17.460Z,26.77
2018-06-01T22:29:46.454Z,27.63
2018-06-01T22:32:14.710Z,25.80
2018-06-01T22:34:42.946Z,28.10
2018-06-01T22:37:11.196Z,27.70
2018-06-01T22:39:39.431Z,29.50
2018-06-01T22:42:07.695Z,27.63
2018-06-01T22:44:35.914Z,28.67
2018-06-01T22:47:04.171Z,30.63
2018-06-01T22:49:32.416Z,28.30
2018-06-01T22:52:00.642Z,29.03
2018-06-01T22:54:29.676Z,29.53
2018-06-01T22:56:57.907Z,28.67
2018-06-01T22:59:26.151Z,30.67
2018-06-01T23:01:54.393Z,30.40
2018-06-01T23:04:22.624Z,31.33
2018-06-01T23:06:50.857Z,31.47
2018-06-01T23:09:19.147Z,32.27
2018-06-01T23:11:47.376Z,31.67
2018-06-01T23:14:16.377Z,32.77
2018-06-01T23:16:45.379Z,32.60
2018-06-01T23:19:13.631Z,36.53
2018-06-01T23:21:41.871Z,33.77
2018-06-01T23:24:10.103Z,34.63
2018-06-01T23:26:38.338Z,33.97
2018-06-01T23:29:06.580Z,36.27
2018-06-01T23:31:34.819Z,34.57
2018-06-01T23:34:03.827Z,35.30
2018-06-01T23:36:32.069Z,32.67
2018-06-01T23:39:00.321Z,35.50
2018-06-01T23:41:28.580Z,35.23
2018-06-01T23:43:56.820Z,35.83
2018-06-01T23:46:25.811Z,36.33
2018-06-01T23:48:54.822Z,36.30
2018-06-01T23:51:23.046Z,38.47
2018-06-01T23:53:51.298Z,35.87
2018-06-01T23:56:19.538Z,35.53
2018-06-01T23:58:47.799Z,35.50
